Terminal Aerodrome Forecast
Issued by NWS

Home | Current Version | Previous Version | Graphics & Text | Print | Product List | Glossary On
Versions: 1 2 3 4 5 6 7 8 9 10 11 12 13 14 15 16 17 18 19 20 21
000
FTUS43 KICT 282125 AAB
TAFRSL
TAF AMD
KRSL 282125Z 2821/2918 06008KT P6SM VCTS SCT050CB BKN120
     FM282200 06010KT P6SM VCTS SCT040CB BKN120
      TEMPO 2822/2901 VRB30G45KT 1SM +TSRA OVC030CB
     FM290800 02005KT P6SM BKN090
     FM291400 04007KT P6SM SCT150=

USA.gov is the U.S. government's official web portal to all federal, state and local government web resources and services.